Latest Weather Observations for Wynyard

IDT60801

Issued at 8:35 am EDT Thursday 23 October 2014 (issued every 30 minutes, with the page automatically refreshed every 10 minutes)

About weather observations | Map of weather stations | Latest weather observations for TAS | Other Formats
Station Details ID: 091107 Name: WYNYARD AIRPORT Lat: -41.00 Lon: 145.73 Height: 12.0 m
Data from the previous 72 hours. | See also: Recent months at Wynyard
Date/Time
EDT
Temp
°C
App
Temp
°C
Dew
Point
Rel
Hum
%
Delta-T
°C
Wind Press
QNH
hPa
Press
MSL
hPa
Rain
since 9 am
mm
Dir
 
Spd
km/h
Gust
km/h
Spd
kts
Gust
kts
23/08:30am 15.5 13.6 11.9 79 1.9 ESE 13 20 7 11 1021.4 1021.4 0.0
23/08:00am 14.8 13.1 12.3 85 1.4 E 13 19 7 10 1021.3 1021.3 0.0
23/07:30am 11.3 11.3 11.3 100 0.0 SSE 2 7 1 4 1021.0 1021.0 0.0
23/07:00am 8.4 7.7 8.4 100 0.0 SSE 2 7 1 4 1020.6 1020.6 0.0
23/06:30am 7.1 5.3 7.0 99 0.0 SW 6 9 3 5 1020.0 1020.0 0.0
23/06:00am 7.8 6.1 7.7 99 0.0 WNW 6 7 3 4 1019.5 1019.5 0.0
23/05:30am 8.2 7.0 8.1 99 0.0 SSW 4 7 2 4 1019.0 1019.0 0.0
23/05:00am 9.0 8.8 8.9 99 0.0 CALM 0 0 0 0 1018.6 1018.6 0.0
23/04:30am 8.7 7.2 8.6 99 0.0 WSW 6 7 3 4 1017.9 1017.9 0.0
23/04:00am 9.1 7.7 9.0 99 0.0 SW 6 7 3 4 1017.6 1017.6 0.0
23/03:30am 11.0 10.8 10.5 97 0.3 E 2 6 1 3 1017.4 1017.4 0.0
23/03:00am 11.4 10.1 10.1 92 0.7 SW 7 9 4 5 1017.3 1017.3 0.0
23/02:30am 12.9 11.8 10.8 87 1.1 SSE 7 13 4 7 1017.1 1017.1 0.0
23/02:00am 14.6 14.7 11.4 81 1.7 SSE 2 7 1 4 1016.8 1016.9 0.0
23/01:30am 15.2 12.9 11.6 79 1.9 S 15 24 8 13 1016.8 1016.9 0.0
23/01:00am 12.7 12.0 11.3 91 0.7 SSW 6 9 3 5 1016.6 1016.7 0.0
23/12:30am 11.5 9.8 11.2 98 0.2 WSW 11 15 6 8 1016.7 1016.8 0.0
23/12:00am 10.3 8.7 10.1 99 0.1 W 9 13 5 7 1017.0 1017.0 0.0
 
Date/Time
EDT
Temp
°C
App
Temp
°C
Dew
Point
Rel
Hum
%
Delta-T
°C
Wind Press
QNH
hPa
Press
MSL
hPa
Rain
since 9 am
mm
Dir
 
Spd
km/h
Gust
km/h
Spd
kts
Gust
kts
22/11:30pm 10.4 8.8 10.2 99 0.1 W 9 13 5 7 1017.1 1017.1 0.0
22/11:00pm 9.9 7.8 9.8 99 0.1 WSW 11 15 6 8 1017.0 1017.0 0.0
22/10:30pm 10.1 8.0 9.9 99 0.1 WSW 11 13 6 7 1016.7 1016.8 0.0
22/10:00pm 9.8 8.4 9.7 99 0.0 SW 7 11 4 6 1016.4 1016.5 0.0
22/09:30pm 10.5 8.9 10.3 99 0.1 WSW 9 11 5 6 1016.5 1016.6 0.0
22/09:00pm 12.1 11.6 11.9 99 0.1 WSW 6 7 3 4 1016.6 1016.7 0.0
22/08:30pm 12.9 12.4 12.6 98 0.2 SW 7 9 4 5 1016.1 1016.2 0.0
22/08:00pm 13.4 13.0 12.3 93 0.6 SSW 6 9 3 5 1015.8 1015.9 0.0
22/07:30pm 14.9 14.6 12.8 87 1.2 N 6 11 3 6 1016.0 1016.1 0.0
22/07:00pm 14.9 13.6 12.6 86 1.3 WNW 11 20 6 11 1015.6 1015.7 0.0
22/06:30pm 14.9 14.3 12.4 85 1.4 E 7 13 4 7 1015.4 1015.5 0.0
22/06:00pm 14.8 13.4 12.1 84 1.5 ENE 11 15 6 8 1015.2 1015.3 0.0
22/05:30pm 15.3 14.9 12.4 83 1.6 NW 6 9 3 5 1016.0 1016.1 0.0
22/05:00pm 15.2 14.0 11.6 79 1.9 ENE 9 15 5 8 1016.6 1016.7 0.0
22/04:30pm 15.6 15.1 12.0 79 2.0 E 6 9 3 5 1016.7 1016.8 0.0
22/04:00pm 16.0 15.0 12.4 79 2.0 ENE 9 13 5 7 1016.7 1016.8 0.0
22/03:30pm 15.6 14.4 11.6 77 2.2 E 9 15 5 8 1017.0 1017.0 0.0
22/03:00pm 15.9 14.2 12.5 80 1.9 ENE 13 19 7 10 1017.0 1017.0 0.0
22/02:30pm 16.5 13.8 11.6 73 2.7 ENE 17 24 9 13 1017.4 1017.4 0.0
22/02:00pm 16.3 13.2 11.5 73 2.6 E 19 26 10 14 1017.8 1017.8 0.0
22/01:30pm 16.3 13.6 11.7 74 2.5 ENE 17 24 9 13 1018.1 1018.1 0.0
22/01:00pm 16.5 14.4 12.3 76 2.3 E 15 20 8 11 1018.4 1018.4 0.0
22/12:30pm 16.4 13.8 12.0 75 2.4 E 17 28 9 15 1019.0 1019.0 0.0
22/12:00pm 16.5 13.5 11.9 74 2.5 SE 19 24 10 13 1019.9 1019.9 0.0
22/11:30am 16.0 12.4 10.7 71 2.8 E 20 28 11 15 1020.6 1020.6 0.0
22/11:00am 16.8 13.8 11.9 73 2.7 E 19 30 10 16 1020.8 1020.8 0.0
22/10:30am 16.5 13.5 11.9 74 2.5 E 19 28 10 15 1021.1 1021.1 0.0
22/10:00am 15.9 12.8 11.7 76 2.3 E 19 30 10 16 1021.6 1021.6 0.0
22/09:30am 15.4 12.3 10.2 71 2.7 E 17 28 9 15 1021.6 1021.6 0.0
22/09:00am 15.1 11.4 10.3 73 2.5 ESE 20 26 11 14 1021.7 1021.7 0.0
22/08:30am 14.5 10.3 9.7 73 2.5 ESE 22 32 12 17 1021.8 1021.8 0.0
22/08:00am 14.0 9.7 9.4 74 2.3 ESE 22 30 12 16 1022.0 1022.0 0.0
22/07:30am 13.4 9.7 9.5 77 2.0 SE 19 24 10 13 1022.4 1022.4 0.0
22/07:00am 12.9 8.9 9.2 78 1.9 ESE 20 32 11 17 1022.4 1022.4 0.0
22/06:30am 13.0 8.6 9.1 77 2.0 ESE 22 32 12 17 1022.5 1022.5 0.0
22/06:00am 13.0 8.7 9.3 78 1.9 ESE 22 32 12 17 1022.4 1022.4 0.0
22/05:30am 12.9 7.8 9.2 78 1.9 ESE 26 37 14 20 1022.4 1022.4 0.0
22/05:00am 13.0 8.3 9.3 78 1.9 ESE 24 32 13 17 1022.9 1022.9 0.0
22/04:30am 13.1 8.8 9.4 78 1.9 ESE 22 30 12 16 1023.3 1023.3 0.0
22/04:00am 12.9 8.6 9.4 79 1.8 ESE 22 32 12 17 1023.7 1023.7 0.0
22/03:30am 12.9 8.6 9.2 78 1.9 ESE 22 32 12 17 1024.0 1024.0 0.0
22/03:00am 12.8 8.5 9.3 79 1.8 ESE 22 30 12 16 1024.4 1024.4 0.0
22/02:30am 12.7 7.6 9.2 79 1.8 ESE 26 37 14 20 1024.9 1024.9 0.0
22/02:00am 12.6 7.2 9.4 81 1.6 ESE 28 35 15 19 1025.5 1025.5 0.0
22/01:30am 12.7 8.6 10.1 84 1.3 E 22 32 12 17 1026.3 1026.3 0.0
22/01:00am 12.7 8.6 10.1 84 1.3 E 22 33 12 18 1026.7 1026.7 0.0
22/12:30am 12.7 8.2 10.1 84 1.3 E 24 35 13 19 1027.1 1027.1 0.0
22/12:00am 13.0 9.5 10.9 87 1.1 E 20 30 11 16 1027.5 1027.5 0.0
 
Date/Time
EDT
Temp
°C
App
Temp
°C
Dew
Point
Rel
Hum
%
Delta-T
°C
Wind Press
QNH
hPa
Press
MSL
hPa
Rain
since 9 am
mm
Dir
 
Spd
km/h
Gust
km/h
Spd
kts
Gust
kts
21/11:30pm 13.0 9.4 10.7 86 1.2 E 20 32 11 17 1027.7 1027.7 0.0
21/11:00pm 12.9 9.4 10.8 87 1.1 E 20 35 11 19 1027.9 1027.9 0.0
21/10:30pm 12.6 9.3 10.8 89 0.9 E 19 30 10 16 1028.5 1028.5 0.0
21/10:00pm 12.5 8.9 10.7 89 0.9 E 20 30 11 16 1028.3 1028.3 0.0
21/09:30pm 12.4 9.4 10.8 90 0.8 E 17 28 9 15 1028.4 1028.4 0.0
21/09:00pm 12.6 9.5 10.3 86 1.2 E 17 28 9 15 1028.7 1028.7 0.0
21/08:30pm 12.5 9.4 10.2 86 1.2 E 17 26 9 14 1028.3 1028.3 0.0
21/08:00pm 12.6 9.4 10.1 85 1.3 E 17 24 9 13 1028.5 1028.5 0.0
21/07:30pm 12.9 9.4 10.1 83 1.4 E 19 35 10 19 1028.4 1028.4 0.0
21/07:00pm 13.4 9.8 9.8 79 1.8 E 19 28 10 15 1028.4 1028.4 0.0
21/06:30pm 13.8 9.9 9.3 74 2.3 E 20 33 11 18 1028.6 1028.6 0.0
21/06:00pm 14.3 10.0 9.3 72 2.5 E 22 35 12 19 1028.6 1028.6 0.0
21/05:30pm 14.6 9.9 9.2 70 2.8 E 24 35 13 19 1028.9 1028.9 0.0
21/05:00pm 14.7 9.5 8.9 68 2.9 E 26 37 14 20 1029.2 1029.2 0.0
21/04:30pm 14.7 9.3 8.0 64 3.3 E 26 37 14 20 1029.3 1029.3 0.0
21/04:00pm 15.2 10.1 9.1 67 3.1 E 26 39 14 21 1029.7 1029.7 0.0
21/03:30pm 15.3 9.2 8.1 62 3.6 E 30 43 16 23 1030.0 1030.0 0.0
21/03:00pm 15.2 9.2 8.7 65 3.3 E 30 44 16 24 1030.3 1030.3 0.0
21/02:30pm 15.5 10.1 9.4 67 3.1 E 28 43 15 23 1030.9 1030.9 0.0
21/02:00pm 15.3 9.8 9.2 67 3.1 E 28 39 15 21 1031.3 1031.3 0.0
21/01:30pm 14.9 8.9 7.2 60 3.8 E 28 48 15 26 1031.6 1031.6 0.0
21/01:00pm 14.5 8.2 7.3 62 3.5 E 30 43 16 23 1031.9 1031.9 0.0
21/12:45pm 14.5 7.8 7.3 62 3.5 E 32 52 17 28 1031.9 1031.9 0.0
21/12:30pm 14.4 7.6 7.5 63 3.4 E 33 46 18 25 1032.0 1032.0 0.0
21/12:00pm 14.7 8.7 8.6 67 3.1 E 30 43 16 23 1032.2 1032.2 0.0
21/11:30am 13.9 6.8 6.5 61 3.6 E 33 46 18 25 1032.4 1032.4 0.0
21/11:00am 14.3 7.5 7.6 64 3.3 ESE 33 44 18 24 1032.8 1032.8 0.0
21/10:30am 13.5 6.6 7.3 66 3.0 ESE 33 46 18 25 1033.0 1033.0 0.0
21/10:00am 13.2 6.5 7.2 67 2.9 E 32 44 17 24 1033.2 1033.2 0.0
21/09:30am 12.8 6.3 6.4 65 3.0 E 30 39 16 21 1033.2 1033.2 0.0
21/09:00am 12.6 6.5 6.4 66 2.9 E 28 39 15 21 1033.0 1033.0 0.0
21/08:30am 12.4 5.4 5.8 64 3.1 E 32 41 17 22 1033.0 1033.0 0.0
21/08:00am 12.1 6.6 5.7 65 3.0 ESE 24 32 13 17 1033.0 1033.0 0.0
21/07:30am 11.6 5.3 5.7 67 2.7 ESE 28 39 15 21 1032.7 1032.7 0.0
21/07:00am 11.4 5.1 5.9 69 2.5 ESE 28 39 15 21 1032.6 1032.6 0.0
21/06:30am 10.9 5.4 6.1 72 2.2 E 24 35 13 19 1032.3 1032.3 0.0
21/06:00am 11.0 4.3 5.7 70 2.4 ESE 30 41 16 22 1031.9 1031.9 0.0
21/05:30am 10.7 4.9 6.3 74 2.1 ESE 26 37 14 20 1031.9 1031.9 0.0
21/05:00am 10.6 4.9 6.6 76 1.9 E 26 39 14 21 1031.7 1031.7 0.0
21/04:30am 10.6 4.5 6.7 77 1.8 ESE 28 37 15 20 1031.6 1031.6 0.0
21/04:00am 10.5 5.3 7.2 80 1.6 ESE 24 33 13 18 1032.0 1032.0 0.0
21/03:30am 10.5 5.6 7.0 79 1.7 ESE 22 28 12 15 1032.4 1032.4 0.0
21/03:00am 10.3 5.8 6.8 79 1.6 ESE 20 28 11 15 1032.8 1032.8 0.0
21/02:30am 10.2 5.8 6.5 78 1.7 ESE 19 26 10 14 1032.9 1032.9 0.0
21/02:00am 11.3 6.4 5.0 65 2.8 ENE 20 32 11 17 1033.2 1033.2 0.0
21/01:30am 11.3 6.6 6.0 70 2.5 ENE 20 30 11 16 1033.6 1033.6 0.0
21/01:00am 11.4 6.5 6.9 74 2.1 ENE 22 33 12 18 1033.7 1033.7 0.0
21/12:30am 9.3 5.9 5.7 78 1.6 ESE 13 19 7 10 1033.8 1033.8 0.0
21/12:00am 7.8 4.2 5.1 83 1.2 SE 13 17 7 9 1033.7 1033.7 0.0
 
Date/Time
EDT
Temp
°C
App
Temp
°C
Dew
Point
Rel
Hum
%
Delta-T
°C
Wind Press
QNH
hPa
Press
MSL
hPa
Rain
since 9 am
mm
Dir
 
Spd
km/h
Gust
km/h
Spd
kts
Gust
kts
20/11:30pm 5.7 4.0 3.9 88 0.8 SSW 2 7 1 4 1034.1 1034.1 0.0
20/11:00pm 5.3 3.5 3.3 87 0.8 WNW 2 9 1 5 1034.3 1034.3 0.0
20/10:30pm 4.8 1.9 2.5 85 0.9 W 7 9 4 5 1034.4 1034.4 0.0
20/10:00pm 5.5 3.7 3.2 85 0.9 W 2 6 1 3 1034.3 1034.3 0.0
20/09:30pm 6.1 2.9 3.1 81 1.2 S 9 11 5 6 1034.3 1034.3 0.0
20/09:00pm 6.7 3.2 3.7 81 1.3 S 11 13 6 7 1034.0 1034.0 0.0
20/08:30pm 5.8 2.3 3.5 85 1.0 S 11 11 6 6 1033.9 1033.9 0.0
20/08:00pm 7.3 4.3 4.1 80 1.4 SSE 9 11 5 6 1033.4 1033.4 0.0
20/07:30pm 10.3 7.6 2.7 59 3.3 ENE 6 9 3 5 1033.4 1033.4 0.0
20/07:00pm 11.0 8.1 2.8 57 3.5 E 7 9 4 5 1033.1 1033.1 0.0
20/06:30pm 11.4 8.4 1.9 52 4.0 NE 7 11 4 6 1033.1 1033.1 0.0
20/06:00pm 11.7 8.4 2.2 52 4.0 NNE 9 13 5 7 1033.3 1033.3 0.0
20/05:30pm 11.8 7.2 1.7 50 4.3 NNE 15 19 8 10 1033.5 1033.5 0.0
20/05:00pm 12.1 7.2 2.0 50 4.3 NE 17 20 9 11 1033.3 1033.3 0.0
20/04:30pm 12.6 7.3 1.9 48 4.6 NE 19 22 10 12 1033.2 1033.2 0.0
20/04:00pm 12.9 7.9 1.3 45 4.9 NE 17 20 9 11 1033.3 1033.3 0.0
20/03:30pm 12.9 8.2 3.0 51 4.4 NE 17 22 9 12 1033.4 1033.4 0.0
20/03:00pm 13.0 7.8 2.3 48 4.6 NE 19 24 10 13 1033.6 1033.6 0.0
20/02:30pm 12.9 8.3 1.3 45 4.9 ENE 15 22 8 12 1033.8 1033.8 0.0
20/02:00pm 12.3 7.4 2.2 50 4.3 NE 17 22 9 12 1034.2 1034.2 0.0
20/01:30pm 12.4 8.0 2.8 52 4.2 ENE 15 20 8 11 1034.4 1034.4 0.0
20/01:00pm 12.1 7.8 3.1 54 3.9 NE 15 20 8 11 1034.6 1034.6 0.0
20/12:30pm 11.6 6.9 1.0 48 4.4 ENE 15 22 8 12 1034.8 1034.8 0.0
20/12:00pm 11.8 7.3 0.0 44 4.8 ENE 13 20 7 11 1034.8 1034.8 0.0
20/11:30am 11.1 6.6 1.9 53 3.9 ENE 15 22 8 12 1034.8 1034.8 0.0
20/11:00am 11.2 6.7 2.2 54 3.8 E 15 22 8 12 1034.8 1034.8 0.0
20/10:30am 10.7 5.6 1.0 51 4.0 E 17 24 9 13 1034.7 1034.7 0.0
20/10:00am 10.7 6.2 2.3 56 3.5 E 15 20 8 11 1034.5 1034.5 0.0
20/09:30am 10.9 6.8 2.0 54 3.8 E 13 20 7 11 1034.3 1034.3 0.0
20/09:00am 10.0 6.1 0.9 53 3.7 SE 11 17 6 9 1033.8 1033.8 0.0

Other Formats:

Comma delimited format used in spreadsheet applications
http://www.bom.gov.au/fwo/IDT60801/IDT60801.95957.axf

JavaScript Object Notation format (JSON) in row-major order
http://www.bom.gov.au/fwo/IDT60801/IDT60801.95957.json